Time;durP1;ratioP1;P1;durP2;ratioP2;P2;SDS_P1;SDS_P2;PMS_P1;PMS_P2;Temp;Humidity;BMP_temperature;BMP_pressure;BME280_temperature;BME280_humidity;BME280_pressure;Samples;Min_cycle;Max_cycle;Signal;HPM_P1;HPM_P2
2023/06/02 00:01:00;;;;;;;13.32;9.40;;;;;;;-142.57;75.35;115900.28;4899400;29;20044;-83
2023/06/02 00:03:33;;;;;;;17.85;11.40;;;;;;;-142.57;76.85;115900.28;4900362;29;20056;-79
2023/06/02 00:06:05;;;;;;;16.70;11.43;;;;;;;-142.57;78.39;115900.28;4898557;29;20093;-82
2023/06/02 00:08:32;;;;;;;22.58;10.80;;;;;;;-142.57;78.63;115900.28;4900236;29;20092;-81
2023/06/02 00:11:00;;;;;;;17.08;10.77;;;;;;;-142.57;79.51;115900.28;4901639;29;20485;-86
2023/06/02 00:13:26;;;;;;;17.52;10.95;;;;;;;-142.57;78.33;115900.28;4901575;29;20040;-85
2023/06/02 00:15:52;;;;;;;20.00;10.80;;;;;;;-142.57;78.94;115900.28;4901422;29;20405;-80
2023/06/02 00:18:20;;;;;;;19.92;10.55;;;;;;;-142.57;80.07;115900.28;4901373;29;20051;-83
2023/06/02 00:20:46;;;;;;;17.45;11.23;;;;;;;-142.57;80.88;115900.28;4884341;29;20041;-86
2023/06/02 00:23:12;;;;;;;21.02;10.73;;;;;;;-142.57;80.13;115900.28;4868674;29;20535;-82
2023/06/02 00:25:39;;;;;;;19.60;11.23;;;;;;;-142.57;79.99;115900.28;4901292;29;20037;-80
2023/06/02 00:28:05;;;;;;;16.63;9.93;;;;;;;-142.57;80.54;115900.28;4900863;29;20041;-81
2023/06/02 00:30:31;;;;;;;18.73;9.48;;;;;;;-142.57;80.29;115900.28;4901417;29;20092;-79
2023/06/02 00:32:57;;;;;;;17.40;10.13;;;;;;;-142.57;79.74;115900.28;4900716;29;20044;-82
2023/06/02 00:35:24;;;;;;;18.83;9.40;;;;;;;-142.57;81.18;115900.28;4884187;29;20036;-80
2023/06/02 00:37:50;;;;;;;14.57;9.70;;;;;;;-142.57;81.34;115900.28;4901055;29;20051;-81
2023/06/02 00:40:16;;;;;;;16.58;9.48;;;;;;;-142.57;80.87;115900.28;4900649;29;20041;-83
2023/06/02 00:42:42;;;;;;;14.20;9.70;;;;;;;-142.57;82.27;115900.28;4901083;29;20040;-87
2023/06/02 00:45:08;;;;;;;17.65;10.60;;;;;;;-142.57;82.39;115900.28;4900846;29;20029;-88
2023/06/02 00:47:33;;;;;;;19.25;9.05;;;;;;;-142.57;84.30;115900.28;4883826;29;20041;-86
2023/06/02 00:49:59;;;;;;;19.05;10.13;;;;;;;-142.57;84.27;115900.28;4903692;29;20039;-85
2023/06/02 00:52:25;;;;;;;21.60;10.95;;;;;;;-142.57;86.42;115900.28;4909206;29;20044;-79
2023/06/02 00:54:52;;;;;;;15.70;9.88;;;;;;;-142.57;88.05;115900.28;4900527;29;20067;-78
2023/06/02 00:57:18;;;;;;;19.48;10.05;;;;;;;-142.57;88.91;115900.28;4887014;29;20377;-85
2023/06/02 00:59:47;;;;;;;17.58;11.38;;;;;;;-142.57;88.94;115900.28;4898280;29;20052;-85
2023/06/02 01:02:16;;;;;;;17.92;11.60;;;;;;;-142.57;90.95;115900.28;4898841;29;20047;-86
2023/06/02 01:04:46;;;;;;;21.30;10.70;;;;;;;-142.57;90.27;115900.28;4883216;29;20096;-85
2023/06/02 01:07:13;;;;;;;14.30;10.40;;;;;;;-142.57;91.08;115900.28;4899877;29;20036;-79
2023/06/02 01:09:41;;;;;;;14.95;10.05;;;;;;;-142.57;92.64;115900.28;4901250;29;20041;-80
2023/06/02 01:12:08;;;;;;;18.85;10.90;;;;;;;-142.57;94.21;115900.28;4904347;29;20119;-80
2023/06/02 01:14:34;;;;;;;20.38;10.60;;;;;;;-142.57;95.03;115900.28;4908144;29;20024;-80
2023/06/02 01:16:59;;;;;;;20.50;10.63;;;;;;;-142.57;95.08;115900.28;4909814;29;20039;-80
2023/06/02 01:19:28;;;;;;;19.23;10.95;;;;;;;-142.57;95.24;115900.28;4893835;29;20140;-80
2023/06/02 01:21:59;;;;;;;23.35;10.48;;;;;;;-142.57;93.84;115900.28;4910843;29;20421;-79
2023/06/02 01:24:36;;;;;;;14.95;8.85;;;;;;;-142.57;92.63;115900.28;4898394;29;20024;-80
2023/06/02 01:27:12;;;;;;;15.35;9.20;;;;;;;-142.57;92.30;115900.28;4896206;29;20107;-80
2023/06/02 01:29:38;;;;;;;17.13;9.27;;;;;;;-142.57;92.09;115900.28;4911316;29;20043;-80
2023/06/02 01:32:28;;;;;;;16.98;9.70;;;;;;;-142.57;91.57;115900.28;4892678;29;20033;-80
2023/06/02 01:35:09;;;;;;;17.35;9.18;;;;;;;-142.57;91.87;115900.28;4903233;29;20083;-83
2023/06/02 01:37:42;;;;;;;17.48;9.65;;;;;;;-142.57;91.93;115900.28;4899915;29;20076;-79
2023/06/02 01:40:10;;;;;;;16.30;9.38;;;;;;;-142.57;92.09;115900.28;4902184;29;20071;-82
2023/06/02 01:42:37;;;;;;;17.10;9.68;;;;;;;-142.57;91.31;115900.28;4885404;29;20033;-83
2023/06/02 01:45:07;;;;;;;16.55;9.75;;;;;;;-142.57;91.46;115900.28;4900296;29;20072;-80
2023/06/02 01:47:33;;;;;;;19.25;9.40;;;;;;;-142.57;92.27;115900.28;4902984;29;20044;-80
2023/06/02 01:49:58;;;;;;;18.60;9.80;;;;;;;-142.57;92.83;115900.28;4884252;29;20032;-82
2023/06/02 01:52:24;;;;;;;12.55;9.77;;;;;;;-142.57;93.03;115900.28;4900227;29;20174;-84
2023/06/02 01:54:50;;;;;;;20.48;10.00;;;;;;;-142.57;92.34;115900.28;4883336;29;20100;-80
2023/06/02 01:57:16;;;;;;;16.50;9.07;;;;;;;-142.57;92.20;115900.28;4901792;29;20037;-77
2023/06/02 01:59:43;;;;;;;16.20;9.35;;;;;;;-142.57;92.49;115900.28;4901391;29;20040;-81
2023/06/02 02:02:08;;;;;;;18.08;9.45;;;;;;;-142.57;91.39;115900.28;4901622;29;20164;-79
2023/06/02 02:04:34;;;;;;;17.35;8.93;;;;;;;-142.57;90.57;115900.28;4903269;29;20036;-82
2023/06/02 02:07:01;;;;;;;16.35;9.43;;;;;;;-142.57;90.99;115900.28;4901479;29;20611;-82
2023/06/02 02:09:27;;;;;;;13.73;8.88;;;;;;;-142.57;89.79;115900.28;4902483;29;20045;-80
2023/06/02 02:11:53;;;;;;;16.92;9.85;;;;;;;-142.57;89.50;115900.28;4902407;29;20488;-82
2023/06/02 02:14:24;;;;;;;14.10;8.38;;;;;;;-142.57;88.34;115900.28;4887882;29;20100;-79
2023/06/02 02:16:51;;;;;;;12.23;8.82;;;;;;;-142.57;88.39;115900.28;4887302;29;20037;-79
2023/06/02 02:19:16;;;;;;;15.88;9.10;;;;;;;-142.57;88.96;115900.28;4887229;29;20366;-81
2023/06/02 02:21:42;;;;;;;15.13;9.32;;;;;;;-142.57;89.23;115900.28;4888654;29;20036;-84
2023/06/02 02:24:09;;;;;;;15.07;8.73;;;;;;;-142.57;89.19;115900.28;4888071;29;20097;-81
2023/06/02 02:26:35;;;;;;;15.85;8.98;;;;;;;-142.57;89.71;115900.28;4903898;29;20047;-81
2023/06/02 02:29:01;;;;;;;15.57;9.25;;;;;;;-142.57;89.63;115900.28;4902423;29;20062;-78
2023/06/02 02:31:27;;;;;;;12.63;9.05;;;;;;;-142.57;91.83;115900.28;4901110;29;20046;-82
2023/06/02 02:33:53;;;;;;;21.30;9.48;;;;;;;-142.57;91.57;115900.28;4887455;29;20032;-81
2023/06/02 02:36:21;;;;;;;14.55;8.55;;;;;;;-142.57;90.75;115900.28;4903401;29;20131;-79
2023/06/02 02:38:49;;;;;;;11.40;8.48;;;;;;;-142.57;89.24;115900.28;4905136;29;20056;-82
2023/06/02 02:41:17;;;;;;;12.13;8.63;;;;;;;-142.57;90.86;115900.28;4884945;29;20048;-80
2023/06/02 02:43:44;;;;;;;14.55;9.77;;;;;;;-142.57;91.42;115900.28;4896526;29;20041;-82
2023/06/02 02:46:09;;;;;;;14.32;9.10;;;;;;;-142.57;92.02;115900.28;4881083;29;20063;-84
2023/06/02 02:48:35;;;;;;;19.75;8.90;;;;;;;-142.57;91.85;115900.28;4898041;29;20036;-84
2023/06/02 02:51:02;;;;;;;15.23;9.57;;;;;;;-142.57;92.22;115900.28;4881132;29;20068;-78
2023/06/02 02:53:31;;;;;;;18.40;9.95;;;;;;;-142.57;92.25;115900.28;4896797;29;20498;-85
2023/06/02 02:55:57;;;;;;;15.70;10.07;;;;;;;-142.57;93.43;115900.28;4881114;29;20049;-83
2023/06/02 02:58:24;;;;;;;16.75;9.40;;;;;;;-142.57;92.42;115900.28;4881080;29;20494;-81
2023/06/02 03:00:50;;;;;;;16.30;9.85;;;;;;;-142.57;91.93;115900.28;4897679;29;20048;-84
2023/06/02 03:03:17;;;;;;;20.20;10.32;;;;;;;-142.57;92.26;115900.28;4880948;29;20037;-80
2023/06/02 03:05:45;;;;;;;18.73;9.10;;;;;;;-142.57;93.29;115900.28;4880613;29;20031;-81
2023/06/02 03:08:12;;;;;;;17.08;9.52;;;;;;;-142.57;94.38;115900.28;4896319;29;20103;-88
2023/06/02 03:10:39;;;;;;;21.73;9.80;;;;;;;-142.57;94.77;115900.28;4880400;29;20131;-83
2023/06/02 03:13:06;;;;;;;24.77;10.10;;;;;;;-142.57;95.02;115900.28;4897810;29;20402;-87
2023/06/02 03:15:33;;;;;;;14.40;8.57;;;;;;;-142.57;94.72;115900.28;4865434;29;20080;-79
2023/06/02 03:17:59;;;;;;;16.08;10.05;;;;;;;-142.57;93.25;115900.28;4880830;29;20037;-84
2023/06/02 03:20:26;;;;;;;13.23;9.13;;;;;;;-142.57;91.96;115900.28;4880427;29;20069;-84
2023/06/02 03:22:52;;;;;;;12.25;8.98;;;;;;;-142.57;91.95;115900.28;4880630;29;20048;-80
2023/06/02 03:25:21;;;;;;;20.25;8.30;;;;;;;-142.57;91.04;115900.28;4880920;29;20135;-81
2023/06/02 03:27:50;;;;;;;18.95;8.45;;;;;;;-142.57;91.53;115900.28;4880536;29;20039;-78
2023/06/02 03:30:16;;;;;;;18.55;9.70;;;;;;;-142.57;90.33;115900.28;4895246;29;20514;-85
2023/06/02 03:32:42;;;;;;;16.45;9.13;;;;;;;-142.57;91.14;115900.28;4880247;29;20072;-84
2023/06/02 03:35:08;;;;;;;15.30;8.63;;;;;;;-142.57;90.67;115900.28;4880043;29;20044;-83
2023/06/02 03:37:37;;;;;;;15.60;9.05;;;;;;;-142.57;90.98;115900.28;4897285;29;20039;-80
2023/06/02 03:40:07;;;;;;;17.08;9.00;;;;;;;-142.57;90.47;115900.28;4880825;29;20044;-80
2023/06/02 03:42:33;;;;;;;12.18;8.70;;;;;;;-142.57;93.25;115900.28;4882268;29;20040;-86
2023/06/02 03:44:59;;;;;;;13.70;9.00;;;;;;;-142.57;93.01;115900.28;4887619;29;20043;-79
2023/06/02 03:47:26;;;;;;;17.67;9.00;;;;;;;-142.57;92.85;115900.28;4908985;29;20037;-78
2023/06/02 03:49:52;;;;;;;17.17;8.63;;;;;;;-142.57;92.36;115900.28;4895210;29;20471;-79
2023/06/02 03:52:18;;;;;;;16.65;9.90;;;;;;;-142.57;91.84;115900.28;4884748;29;20106;-80
2023/06/02 03:54:45;;;;;;;17.17;9.75;;;;;;;-142.57;92.35;115900.28;4900976;29;20454;-82
2023/06/02 03:57:11;;;;;;;20.17;9.57;;;;;;;-142.57;92.91;115900.28;4883856;29;20031;-79
2023/06/02 03:59:36;;;;;;;16.85;9.48;;;;;;;-142.57;92.60;115900.28;4883761;29;20041;-80
2023/06/02 04:02:02;;;;;;;23.98;10.38;;;;;;;-142.57;93.09;115900.28;4883896;29;20402;-85
2023/06/02 04:04:28;;;;;;;13.25;9.48;;;;;;;-142.57;93.06;115900.28;4883918;29;20039;-81
2023/06/02 04:06:54;;;;;;;17.55;10.10;;;;;;;-142.57;92.39;115900.28;4883735;29;20028;-83
2023/06/02 04:09:19;;;;;;;16.40;9.10;;;;;;;-142.57;91.67;115900.28;4900854;29;20472;-85
2023/06/02 04:11:46;;;;;;;18.48;10.10;;;;;;;-142.57;90.55;115900.28;4883984;29;20044;-79
2023/06/02 04:14:12;;;;;;;15.15;8.90;;;;;;;-142.57;89.52;115900.28;4900452;29;20032;-82
2023/06/02 04:16:40;;;;;;;17.88;9.10;;;;;;;-142.57;89.35;115900.28;4883790;29;20051;-84
2023/06/02 04:19:06;;;;;;;15.73;9.50;;;;;;;-142.57;89.27;115900.28;4883555;29;20032;-83
2023/06/02 04:21:33;;;;;;;23.05;9.38;;;;;;;-142.57;88.78;115900.28;4883557;29;20029;-79
2023/06/02 04:23:58;;;;;;;17.98;9.77;;;;;;;-142.57;89.22;115900.28;4900308;29;20032;-79
2023/06/02 04:26:24;;;;;;;20.52;9.32;;;;;;;-142.57;89.14;115900.28;4900328;29;20040;-84
2023/06/02 04:28:50;;;;;;;18.88;10.13;;;;;;;-142.57;89.74;115900.28;4883435;29;20037;-80
2023/06/02 04:31:26;;;;;;;16.73;9.32;;;;;;;-142.57;88.62;115900.28;4883404;29;20064;-82
2023/06/02 04:33:55;;;;;;;23.60;9.65;;;;;;;-142.57;87.64;115900.28;4883275;29;20501;-82
2023/06/02 04:36:21;;;;;;;16.20;9.07;;;;;;;-142.57;87.92;115900.28;4898914;29;20037;-81
2023/06/02 04:38:48;;;;;;;15.55;9.68;;;;;;;-142.57;86.71;115900.28;4883273;29;20442;-84
2023/06/02 04:41:14;;;;;;;18.58;9.27;;;;;;;-142.57;86.18;115900.28;4883377;29;20381;-83
2023/06/02 04:43:42;;;;;;;17.67;10.48;;;;;;;-142.57;88.23;115900.28;4898545;29;20131;-83
2023/06/02 04:46:10;;;;;;;15.30;9.55;;;;;;;-142.57;89.56;115900.28;4883078;29;20033;-82
2023/06/02 04:48:40;;;;;;;12.07;8.93;;;;;;;-142.57;87.59;115900.28;4883224;29;20035;-84
2023/06/02 04:51:07;;;;;;;14.35;8.88;;;;;;;-142.57;86.59;115900.28;4883025;29;20143;-82
2023/06/02 04:53:33;;;;;;;15.55;8.57;;;;;;;-142.57;85.45;115900.28;4898113;29;20108;-85
2023/06/02 04:55:59;;;;;;;14.80;9.02;;;;;;;-142.57;85.00;115900.28;4899503;29;20124;-83
2023/06/02 04:58:25;;;;;;;14.02;9.52;;;;;;;-142.57;83.50;115900.28;4882412;29;20132;-82
2023/06/02 05:00:51;;;;;;;21.15;8.73;;;;;;;-142.57;83.68;115900.28;4898104;29;20033;-82
2023/06/02 05:03:17;;;;;;;12.98;8.15;;;;;;;-142.57;82.89;115900.28;4883677;29;20131;-81
2023/06/02 05:05:42;;;;;;;13.40;9.30;;;;;;;-142.57;82.58;115900.28;4883510;29;20132;-81
2023/06/02 05:08:08;;;;;;;17.75;9.35;;;;;;;-142.57;82.00;115900.28;4883467;29;20068;-85
2023/06/02 05:10:34;;;;;;;15.10;9.13;;;;;;;-142.57;83.17;115900.28;4900354;29;20063;-83
2023/06/02 05:13:00;;;;;;;22.70;9.55;;;;;;;-142.57;84.96;115900.28;4899256;29;20040;-81
2023/06/02 05:15:27;;;;;;;13.93;9.75;;;;;;;-142.57;84.32;115900.28;4883337;29;20040;-81
2023/06/02 05:17:53;;;;;;;25.17;9.32;;;;;;;-142.57;84.25;115900.28;4882741;29;20049;-86
2023/06/02 05:20:24;;;;;;;21.27;8.98;;;;;;;-142.57;82.66;115900.28;4882974;29;20044;-79
2023/06/02 05:22:50;;;;;;;16.25;9.48;;;;;;;-142.57;81.98;115900.28;4898335;29;20508;-83
2023/06/02 05:25:16;;;;;;;16.95;8.90;;;;;;;-142.57;80.36;115900.28;4883134;29;20103;-80
2023/06/02 05:27:42;;;;;;;23.15;9.73;;;;;;;-142.57;81.08;115900.28;4900699;29;20037;-82
2023/06/02 05:30:09;;;;;;;15.38;8.93;;;;;;;-142.57;80.46;115900.28;4867961;29;20068;-80
2023/06/02 05:32:35;;;;;;;25.85;9.50;;;;;;;-142.57;80.21;115900.28;4899801;29;20128;-83
2023/06/02 05:35:02;;;;;;;20.38;9.77;;;;;;;-142.57;79.17;115900.28;4882360;29;20076;-80
2023/06/02 05:37:28;;;;;;;13.70;8.45;;;;;;;-142.57;76.97;115900.28;4883314;29;20072;-84
2023/06/02 05:39:53;;;;;;;15.00;9.15;;;;;;;-142.57;75.18;115900.28;4884439;29;20181;-80
2023/06/02 05:42:20;;;;;;;22.42;9.18;;;;;;;-142.57;74.89;115900.28;4883283;29;20040;-84
2023/06/02 05:44:46;;;;;;;15.32;8.43;;;;;;;-142.57;74.71;115900.28;4884086;29;20037;-84
2023/06/02 05:47:12;;;;;;;16.48;8.35;;;;;;;-142.57;71.47;115900.28;4883488;29;20176;-81
2023/06/02 05:49:37;;;;;;;16.42;7.82;;;;;;;-142.57;72.13;115900.28;4899585;29;20107;-80
2023/06/02 05:52:06;;;;;;;14.70;8.52;;;;;;;-142.57;71.03;115900.28;4900828;29;20077;-83
2023/06/02 05:54:32;;;;;;;14.15;8.02;;;;;;;-142.57;68.64;115900.28;4886175;29;20192;-80
2023/06/02 05:56:58;;;;;;;14.48;8.05;;;;;;;-142.57;67.16;115900.28;4884639;29;20105;-83
2023/06/02 05:59:23;;;;;;;12.13;7.95;;;;;;;-142.57;64.68;115900.28;4901040;29;20032;-81
2023/06/02 06:01:49;;;;;;;13.18;7.40;;;;;;;-142.57;63.69;115900.28;4882932;29;20043;-86
2023/06/02 06:04:14;;;;;;;13.95;6.43;;;;;;;-142.57;62.64;115900.28;4882814;29;20049;-84
2023/06/02 06:06:40;;;;;;;14.35;7.28;;;;;;;-142.57;62.14;115900.28;4881319;29;20119;-85
2023/06/02 06:09:06;;;;;;;13.05;7.60;;;;;;;-142.57;59.00;115900.28;4899973;29;20051;-85
2023/06/02 06:11:33;;;;;;;11.48;7.60;;;;;;;-142.57;56.90;115900.28;4883400;29;20565;-81
2023/06/02 06:14:00;;;;;;;11.70;6.65;;;;;;;-142.57;57.08;115900.28;4902929;29;20514;-82
2023/06/02 06:16:27;;;;;;;12.57;6.65;;;;;;;-142.57;55.90;115900.28;4887736;29;20041;-82
2023/06/02 06:18:53;;;;;;;13.07;6.60;;;;;;;-142.57;56.02;115900.28;4888275;29;20427;-82
2023/06/02 06:21:23;;;;;;;17.15;6.82;;;;;;;-142.57;55.89;115900.28;4887716;29;20040;-83
2023/06/02 06:23:48;;;;;;;9.77;6.47;;;;;;;-142.57;54.55;115900.28;4890306;29;20032;-83
2023/06/02 06:26:14;;;;;;;11.07;6.10;;;;;;;-142.57;51.75;115900.28;4892117;29;20375;-81
2023/06/02 06:28:43;;;;;;;9.00;6.35;;;;;;;-142.57;50.39;115900.28;4891142;29;20123;-83
2023/06/02 06:31:11;;;;;;;12.27;6.30;;;;;;;-142.57;51.06;115900.28;4875654;29;20049;-81
2023/06/02 06:33:37;;;;;;;15.30;6.45;;;;;;;-142.57;50.19;115900.28;4891913;29;20131;-81
2023/06/02 06:36:02;;;;;;;12.10;7.07;;;;;;;-142.57;49.60;115900.28;4908274;29;20037;-86
2023/06/02 06:38:28;;;;;;;14.70;7.97;;;;;;;-142.57;50.32;115900.28;4904997;29;20100;-81
2023/06/02 06:40:55;;;;;;;9.23;6.65;;;;;;;-142.57;48.10;115900.28;4889979;29;20044;-81
2023/06/02 06:43:21;;;;;;;19.63;7.18;;;;;;;-142.57;49.14;115900.28;4908235;29;20044;-81
2023/06/02 06:45:51;;;;;;;16.30;7.70;;;;;;;-142.57;48.15;115900.28;4904702;29;20037;-83
2023/06/02 06:48:20;;;;;;;14.05;8.70;;;;;;;-142.57;48.42;115900.28;4888515;29;20485;-83
2023/06/02 06:50:48;;;;;;;15.98;7.40;;;;;;;-142.57;47.64;115900.28;4889429;29;20033;-81
2023/06/02 06:53:14;;;;;;;13.52;7.75;;;;;;;-142.57;49.07;115900.28;4906945;29;20048;-85
2023/06/02 06:55:40;;;;;;;19.40;8.48;;;;;;;-142.57;48.46;115900.28;4903398;29;20505;-80
2023/06/02 06:58:06;;;;;;;17.30;8.43;;;;;;;-142.57;47.51;115900.28;4895387;29;20039;-82
2023/06/02 07:00:31;;;;;;;12.63;7.20;;;;;;;-142.57;45.42;115900.28;4870466;29;20049;-86
2023/06/02 07:02:57;;;;;;;12.45;7.32;;;;;;;-142.57;46.03;115900.28;4902580;29;20040;-85
2023/06/02 07:05:22;;;;;;;15.77;6.95;;;;;;;-142.57;43.59;115900.28;4886477;29;20048;-86
2023/06/02 07:07:49;;;;;;;15.50;7.78;;;;;;;-142.57;44.91;115900.28;4882003;29;20041;-86
2023/06/02 07:10:14;;;;;;;10.90;7.32;;;;;;;-142.57;44.84;115900.28;4899071;29;20118;-84
2023/06/02 07:12:41;;;;;;;11.40;7.53;;;;;;;-142.57;42.18;115900.28;4881351;29;20037;-85
2023/06/02 07:15:07;;;;;;;12.20;7.10;;;;;;;-142.57;44.59;115900.28;4899065;29;20040;-85
2023/06/02 07:17:33;;;;;;;14.05;7.60;;;;;;;-142.57;45.13;115900.28;4897748;29;20111;-83
2023/06/02 07:19:59;;;;;;;14.30;7.05;;;;;;;-142.57;43.85;115900.28;4902488;29;20483;-86
2023/06/02 07:22:24;;;;;;;18.70;8.07;;;;;;;-142.57;44.97;115900.28;4904835;29;20065;-86
2023/06/02 07:24:51;;;;;;;11.05;7.35;;;;;;;-142.57;43.18;115900.28;4905307;29;20099;-86
2023/06/02 07:27:17;;;;;;;12.90;8.07;;;;;;;-142.57;44.06;115900.28;4903601;29;20036;-88
2023/06/02 07:29:43;;;;;;;15.80;7.80;;;;;;;-142.57;44.65;115900.28;4887291;29;20043;-84
2023/06/02 07:32:09;;;;;;;11.55;7.93;;;;;;;-142.57;44.80;115900.28;4888906;29;20108;-87
2023/06/02 07:34:35;;;;;;;17.85;8.02;;;;;;;-142.57;44.73;115900.28;4903675;29;20115;-87
2023/06/02 07:37:02;;;;;;;16.63;7.20;;;;;;;-142.57;43.91;115900.28;4902793;29;20482;-83
2023/06/02 07:39:28;;;;;;;10.65;6.72;;;;;;;-142.57;43.46;115900.28;4906831;29;20048;-86
2023/06/02 07:41:54;;;;;;;9.35;6.65;;;;;;;-142.57;42.14;115900.28;4905824;29;20036;-84
2023/06/02 07:44:23;;;;;;;16.60;7.50;;;;;;;-142.57;42.99;115900.28;4906930;29;20397;-84
2023/06/02 07:46:48;;;;;;;14.05;7.28;;;;;;;-142.57;41.43;115900.28;4889270;29;20037;-85
2023/06/02 07:49:14;;;;;;;15.35;7.28;;;;;;;-142.57;41.39;115900.28;4903115;29;20043;-85
2023/06/02 07:51:40;;;;;;;15.85;7.03;;;;;;;-142.57;40.84;115900.28;4907448;29;20029;-81
2023/06/02 07:54:05;;;;;;;23.63;8.00;;;;;;;-142.57;41.15;115900.28;4907680;29;20044;-82
2023/06/02 07:56:31;;;;;;;13.15;6.80;;;;;;;-142.57;41.29;115900.28;4901471;29;20041;-88
2023/06/02 07:58:57;;;;;;;10.82;7.32;;;;;;;-142.57;39.40;115900.28;4859693;29;20108;-86
2023/06/02 08:01:22;;;;;;;13.95;7.38;;;;;;;-142.57;41.09;115900.28;4868845;29;20046;-82
2023/06/02 08:03:48;;;;;;;27.92;7.25;;;;;;;-142.57;40.10;115900.28;4887330;29;20037;-80
2023/06/02 08:06:14;;;;;;;13.85;7.32;;;;;;;-142.57;39.01;115900.28;4883940;29;20052;-86
2023/06/02 08:08:40;;;;;;;9.75;6.32;;;;;;;-142.57;38.77;115900.28;4882651;29;20112;-82
2023/06/02 08:11:05;;;;;;;8.35;6.43;;;;;;;-142.57;38.25;115900.28;4882216;29;20089;-83
2023/06/02 08:13:31;;;;;;;13.80;5.95;;;;;;;-142.57;37.91;115900.28;4865695;29;20041;-85
2023/06/02 08:15:57;;;;;;;19.20;6.57;;;;;;;-142.57;38.69;115900.28;4853536;29;20124;-84
2023/06/02 08:18:23;;;;;;;12.10;6.65;;;;;;;-142.57;39.24;115900.28;4884580;29;20040;-83
2023/06/02 08:20:48;;;;;;;8.63;6.03;;;;;;;-142.57;38.56;115900.28;4895549;29;20501;-83
2023/06/02 08:23:14;;;;;;;12.13;5.95;;;;;;;-142.57;36.10;115900.28;4897035;29;20119;-84
2023/06/02 08:25:40;;;;;;;10.45;5.55;;;;;;;-142.57;36.19;115900.28;4896337;29;20115;-86
2023/06/02 08:28:06;;;;;;;13.38;6.47;;;;;;;-142.57;37.40;115900.28;4895026;29;20051;-86
2023/06/02 08:30:35;;;;;;;11.55;6.82;;;;;;;-142.57;36.84;115900.28;4878780;29;20048;-88
2023/06/02 08:33:03;;;;;;;13.43;7.10;;;;;;;-142.57;37.97;115900.28;4881332;29;20092;-84
2023/06/02 08:35:32;;;;;;;13.07;7.50;;;;;;;-142.57;37.74;115900.28;4906241;29;20035;-83
2023/06/02 08:38:07;;;;;;;11.52;6.95;;;;;;;-142.57;40.05;115900.28;4878061;29;20043;-82
2023/06/02 08:40:41;;;;;;;9.63;7.30;;;;;;;-142.57;38.71;115900.28;4884284;29;20167;-87
2023/06/02 08:43:13;;;;;;;10.07;6.75;;;;;;;-142.57;38.30;115900.28;4886822;29;20040;-86
2023/06/02 08:45:41;;;;;;;17.88;7.15;;;;;;;-142.57;38.04;115900.28;4900189;29;20039;-82
2023/06/02 08:48:08;;;;;;;32.88;7.63;;;;;;;-142.57;39.41;115900.28;4882083;29;20390;-85
2023/06/02 08:50:38;;;;;;;10.55;6.70;;;;;;;-142.57;38.62;115900.28;4902164;29;20063;-86
2023/06/02 08:53:11;;;;;;;10.30;6.90;;;;;;;-142.57;38.43;115900.28;4868847;29;20033;-86
2023/06/02 08:55:39;;;;;;;16.27;7.00;;;;;;;-142.57;36.41;115900.28;4901239;29;20043;-87
2023/06/02 08:58:05;;;;;;;11.73;6.03;;;;;;;-142.57;36.47;115900.28;4898536;29;20390;-86
2023/06/02 09:00:31;;;;;;;11.13;6.82;;;;;;;-142.57;35.91;115900.28;4898823;29;20064;-87
2023/06/02 09:02:57;;;;;;;9.23;6.60;;;;;;;-142.57;35.59;115900.28;4899545;29;20055;-86
2023/06/02 09:05:24;;;;;;;11.45;7.70;;;;;;;-142.57;36.67;115900.28;4883202;29;20074;-84
2023/06/02 09:08:14;;;;;;;12.75;7.20;;;;;;;-142.57;36.32;115900.28;4897633;29;20037;-86
2023/06/02 09:10:41;;;;;;;12.02;6.93;;;;;;;-142.57;35.91;115900.28;4897075;29;20040;-84
2023/06/02 09:13:28;;;;;;;17.08;7.28;;;;;;;-142.57;36.46;115900.28;4897235;29;20072;-86
2023/06/02 09:15:58;;;;;;;10.98;6.50;;;;;;;-142.57;37.95;115900.28;4882647;29;20036;-86
2023/06/02 09:18:24;;;;;;;12.70;6.90;;;;;;;-142.57;36.89;115900.28;4897365;29;20045;-85
2023/06/02 09:20:50;;;;;;;13.68;6.63;;;;;;;-142.57;36.75;115900.28;4902322;29;20044;-85
2023/06/02 09:23:16;;;;;;;13.82;6.75;;;;;;;-142.57;36.67;115900.28;4881027;29;20043;-86
2023/06/02 09:25:43;;;;;;;15.45;6.20;;;;;;;-142.57;35.50;115900.28;4896531;29;20036;-84
2023/06/02 09:28:11;;;;;;;10.32;6.03;;;;;;;-142.57;35.32;115900.28;4879523;29;20112;-87
2023/06/02 09:30:37;;;;;;;9.95;6.10;;;;;;;-142.57;34.53;115900.28;4864744;29;20037;-87
2023/06/02 09:33:14;;;;;;;11.10;6.03;;;;;;;-142.57;34.25;115900.28;4881011;29;20041;-85
2023/06/02 09:35:50;;;;;;;13.23;5.65;;;;;;;-142.57;34.77;115900.28;4898144;29;20059;-84
2023/06/02 09:38:16;;;;;;;18.35;6.70;;;;;;;-142.57;35.50;115900.28;4895074;29;20060;-84
2023/06/02 09:40:44;;;;;;;11.50;5.93;;;;;;;-142.57;35.65;115900.28;4853713;29;20041;-86
2023/06/02 09:43:12;;;;;;;17.10;6.32;;;;;;;-142.57;36.48;115900.28;4903776;29;20490;-88
2023/06/02 09:45:53;;;;;;;12.48;6.55;;;;;;;-142.57;35.80;115900.28;4901871;29;20156;-89
2023/06/02 09:49:00;;;;;;;10.98;6.78;;;;;;;-142.57;36.10;115900.28;4894955;29;20067;-87
2023/06/02 09:51:26;;;;;;;9.93;6.53;;;;;;;-142.57;37.76;115900.28;4886815;29;20625;-87
2023/06/02 10:00:11;;;;;;;11.20;6.53;;;;;;;-142.57;36.91;115900.28;4856490;23;21061;-90
2023/06/02 10:02:38;;;;;;;7.88;5.72;;;;;;;-142.57;35.51;115900.28;4840682;29;20034;-89
2023/06/02 10:05:06;;;;;;;10.98;6.07;;;;;;;-142.57;34.98;115900.28;4857965;29;20042;-89
2023/06/02 10:07:56;;;;;;;9.20;6.30;;;;;;;-142.57;35.60;115900.28;4831061;29;20033;-88
2023/06/02 10:10:35;;;;;;;23.33;7.13;;;;;;;-142.57;35.50;115900.28;4856118;29;20055;-84
2023/06/02 10:13:35;;;;;;;10.32;6.10;;;;;;;-142.57;35.46;115900.28;4849197;29;20042;-85
2023/06/02 10:16:19;;;;;;;17.60;6.10;;;;;;;-142.57;34.79;115900.28;4859296;29;20041;-86
2023/06/02 10:18:57;;;;;;;12.75;6.40;;;;;;;-142.57;35.35;115900.28;4835222;29;20197;-87
2023/06/02 10:21:40;;;;;;;8.18;5.68;;;;;;;-142.57;35.93;115900.28;4832057;29;20049;-85
2023/06/02 10:24:25;;;;;;;13.82;6.53;;;;;;;-142.57;35.88;115900.28;4829468;29;20072;-88
2023/06/02 10:27:10;;;;;;;10.07;6.43;;;;;;;-142.57;34.94;115900.28;4854021;29;20124;-87
2023/06/02 10:29:37;;;;;;;15.23;6.65;;;;;;;-142.57;34.80;115900.28;4853348;29;20049;-88
2023/06/02 10:32:33;;;;;;;8.40;5.55;;;;;;;-142.57;34.12;115900.28;4965608;23;20121;-88
2023/06/02 10:35:00;;;;;;;10.52;5.70;;;;;;;-142.57;33.18;115900.28;4855913;29;20049;-91
2023/06/02 10:37:37;;;;;;;11.40;5.30;;;;;;;-142.57;33.52;115900.28;4855529;29;20057;-91
2023/06/02 10:40:15;;;;;;;17.03;6.40;;;;;;;-142.57;33.09;115900.28;4890712;29;20108;-92
2023/06/02 10:43:12;;;;;;;10.15;5.25;;;;;;;-142.57;33.73;115900.28;4856398;29;20890;-89
2023/06/02 10:45:38;;;;;;;11.68;6.00;;;;;;;-142.57;32.92;115900.28;4878141;29;20033;-85
2023/06/02 10:48:41;;;;;;;10.57;5.57;;;;;;;-142.57;32.50;115900.28;4880647;29;20119;-89
2023/06/02 10:51:09;;;;;;;8.65;5.72;;;;;;;-142.57;32.03;115900.28;4875315;29;20044;-86
2023/06/02 10:54:01;;;;;;;7.72;5.65;;;;;;;-142.57;31.95;115900.28;4875784;29;20566;-86
2023/06/02 10:56:38;;;;;;;11.05;5.90;;;;;;;-142.57;31.88;115900.28;4877579;29;20041;-83
2023/06/02 10:59:06;;;;;;;15.18;7.63;;;;;;;-142.57;31.62;115900.28;4870379;29;20041;-82
2023/06/02 11:01:49;;;;;;;12.85;7.05;;;;;;;-142.57;32.46;115900.28;4876050;29;20055;-80
2023/06/02 11:04:35;;;;;;;14.57;8.25;;;;;;;-142.57;32.11;115900.28;4877704;29;20491;-85
2023/06/02 11:07:25;;;;;;;15.52;8.55;;;;;;;-142.57;32.69;115900.28;4877168;29;20124;-81
2023/06/02 11:09:59;;;;;;;18.00;9.00;;;;;;;-142.57;33.32;115900.28;4876944;29;20068;-81
2023/06/02 11:12:51;;;;;;;14.25;8.57;;;;;;;-142.57;32.95;115900.28;4856826;29;20487;-82
2023/06/02 11:15:18;;;;;;;21.33;10.52;;;;;;;-142.57;33.36;115900.28;4849932;29;20255;-80